sensor_id;sensor_type;location;lat;lon;timestamp;temperature;humidity
68977;SHT31;56029;52.568;13.588;2023-07-29T00:01:37;18.18;99.49
68977;SHT31;56029;52.568;13.588;2023-07-29T00:04:05;18.12;99.81
68977;SHT31;56029;52.568;13.588;2023-07-29T00:06:30;18.08;99.68
68977;SHT31;56029;52.568;13.588;2023-07-29T00:08:56;18.07;99.80
68977;SHT31;56029;52.568;13.588;2023-07-29T00:11:22;18.04;99.96
68977;SHT31;56029;52.568;13.588;2023-07-29T00:13:47;18.02;99.81
68977;SHT31;56029;52.568;13.588;2023-07-29T00:16:15;17.97;99.39
68977;SHT31;56029;52.568;13.588;2023-07-29T00:18:43;17.95;99.81
68977;SHT31;56029;52.568;13.588;2023-07-29T00:21:08;17.91;99.69
68977;SHT31;56029;52.568;13.588;2023-07-29T00:23:34;17.87;99.37
68977;SHT31;56029;52.568;13.588;2023-07-29T00:26:00;17.81;99.75
68977;SHT31;56029;52.568;13.588;2023-07-29T00:28:25;17.80;99.99
68977;SHT31;56029;52.568;13.588;2023-07-29T00:30:51;17.74;99.69
68977;SHT31;56029;52.568;13.588;2023-07-29T00:33:16;17.74;99.57
68977;SHT31;56029;52.568;13.588;2023-07-29T00:35:42;17.69;99.62
68977;SHT31;56029;52.568;13.588;2023-07-29T00:38:08;17.66;99.96
68977;SHT31;56029;52.568;13.588;2023-07-29T00:40:35;17.65;99.99
68977;SHT31;56029;52.568;13.588;2023-07-29T00:43:01;17.63;99.99
68977;SHT31;56029;52.568;13.588;2023-07-29T00:45:29;17.60;99.95
68977;SHT31;56029;52.568;13.588;2023-07-29T00:47:54;17.56;99.93
68977;SHT31;56029;52.568;13.588;2023-07-29T00:50:21;17.53;99.93
68977;SHT31;56029;52.568;13.588;2023-07-29T00:52:46;17.50;99.99
68977;SHT31;56029;52.568;13.588;2023-07-29T00:55:12;17.51;99.99
68977;SHT31;56029;52.568;13.588;2023-07-29T00:57:37;17.49;99.96
68977;SHT31;56029;52.568;13.588;2023-07-29T01:00:05;17.40;99.99
68977;SHT31;56029;52.568;13.588;2023-07-29T01:02:31;17.42;99.99
68977;SHT31;56029;52.568;13.588;2023-07-29T01:04:58;17.43;99.99
68977;SHT31;56029;52.568;13.588;2023-07-29T01:07:37;17.37;99.99
68977;SHT31;56029;52.568;13.588;2023-07-29T01:12:51;17.36;99.99
68977;SHT31;56029;52.568;13.588;2023-07-29T01:15:27;17.33;99.99
68977;SHT31;56029;52.568;13.588;2023-07-29T01:17:55;17.35;99.99
68977;SHT31;56029;52.568;13.588;2023-07-29T01:20:24;17.33;99.99
68977;SHT31;56029;52.568;13.588;2023-07-29T01:22:50;17.30;99.99
68977;SHT31;56029;52.568;13.588;2023-07-29T01:25:16;17.33;99.99
68977;SHT31;56029;52.568;13.588;2023-07-29T01:27:48;17.33;99.99
68977;SHT31;56029;52.568;13.588;2023-07-29T01:30:14;17.28;99.99
68977;SHT31;56029;52.568;13.588;2023-07-29T01:32:43;17.29;99.99
68977;SHT31;56029;52.568;13.588;2023-07-29T01:35:19;17.26;99.99
68977;SHT31;56029;52.568;13.588;2023-07-29T01:37:55;17.23;99.99
68977;SHT31;56029;52.568;13.588;2023-07-29T01:40:22;17.19;99.99
68977;SHT31;56029;52.568;13.588;2023-07-29T01:42:50;17.20;99.99
68977;SHT31;56029;52.568;13.588;2023-07-29T01:45:16;17.23;99.99
68977;SHT31;56029;52.568;13.588;2023-07-29T01:47:42;17.16;99.99
68977;SHT31;56029;52.568;13.588;2023-07-29T01:50:08;17.11;99.99
68977;SHT31;56029;52.568;13.588;2023-07-29T01:52:34;17.08;99.99
68977;SHT31;56029;52.568;13.588;2023-07-29T01:54:59;17.05;99.99
68977;SHT31;56029;52.568;13.588;2023-07-29T01:57:25;17.04;99.99
68977;SHT31;56029;52.568;13.588;2023-07-29T01:59:50;16.94;99.99
68977;SHT31;56029;52.568;13.588;2023-07-29T02:02:16;16.98;99.99
68977;SHT31;56029;52.568;13.588;2023-07-29T02:04:41;16.81;99.97
68977;SHT31;56029;52.568;13.588;2023-07-29T02:07:07;16.84;99.99
68977;SHT31;56029;52.568;13.588;2023-07-29T02:09:32;16.82;99.66
68977;SHT31;56029;52.568;13.588;2023-07-29T02:11:58;16.82;99.76
68977;SHT31;56029;52.568;13.588;2023-07-29T02:14:24;16.75;99.76
68977;SHT31;56029;52.568;13.588;2023-07-29T02:16:49;16.72;99.99
68977;SHT31;56029;52.568;13.588;2023-07-29T02:19:15;16.67;99.99
68977;SHT31;56029;52.568;13.588;2023-07-29T02:21:41;16.68;99.99
68977;SHT31;56029;52.568;13.588;2023-07-29T02:24:06;16.65;99.99
68977;SHT31;56029;52.568;13.588;2023-07-29T02:26:32;16.67;99.87
68977;SHT31;56029;52.568;13.588;2023-07-29T02:28:58;16.61;99.96
68977;SHT31;56029;52.568;13.588;2023-07-29T02:31:24;16.60;99.99
68977;SHT31;56029;52.568;13.588;2023-07-29T02:33:51;16.54;99.99
68977;SHT31;56029;52.568;13.588;2023-07-29T02:36:16;16.46;99.99
68977;SHT31;56029;52.568;13.588;2023-07-29T02:38:42;16.49;99.99
68977;SHT31;56029;52.568;13.588;2023-07-29T02:41:09;16.46;99.99
68977;SHT31;56029;52.568;13.588;2023-07-29T02:43:35;16.49;99.99
68977;SHT31;56029;52.568;13.588;2023-07-29T02:46:02;16.49;99.99
68977;SHT31;56029;52.568;13.588;2023-07-29T02:48:28;16.44;99.99
68977;SHT31;56029;52.568;13.588;2023-07-29T02:50:54;16.40;99.99
68977;SHT31;56029;52.568;13.588;2023-07-29T02:53:19;16.24;99.99
68977;SHT31;56029;52.568;13.588;2023-07-29T02:55:45;16.09;99.64
68977;SHT31;56029;52.568;13.588;2023-07-29T02:58:11;16.10;99.99
68977;SHT31;56029;52.568;13.588;2023-07-29T03:00:36;15.99;99.99
68977;SHT31;56029;52.568;13.588;2023-07-29T03:03:02;16.00;99.99
68977;SHT31;56029;52.568;13.588;2023-07-29T03:05:28;16.03;99.99
68977;SHT31;56029;52.568;13.588;2023-07-29T03:07:54;16.02;99.99
68977;SHT31;56029;52.568;13.588;2023-07-29T03:10:19;16.03;99.99
68977;SHT31;56029;52.568;13.588;2023-07-29T03:12:46;16.08;99.99
68977;SHT31;56029;52.568;13.588;2023-07-29T03:15:12;16.08;99.99
68977;SHT31;56029;52.568;13.588;2023-07-29T03:17:38;16.12;99.99
68977;SHT31;56029;52.568;13.588;2023-07-29T03:20:04;16.13;99.99
68977;SHT31;56029;52.568;13.588;2023-07-29T03:22:30;16.14;99.99
68977;SHT31;56029;52.568;13.588;2023-07-29T03:24:55;16.21;99.99
68977;SHT31;56029;52.568;13.588;2023-07-29T03:27:21;16.19;99.99
68977;SHT31;56029;52.568;13.588;2023-07-29T03:29:46;16.19;99.99
68977;SHT31;56029;52.568;13.588;2023-07-29T03:32:13;16.26;99.99
68977;SHT31;56029;52.568;13.588;2023-07-29T03:34:38;16.24;99.99
68977;SHT31;56029;52.568;13.588;2023-07-29T03:37:05;16.27;99.99
68977;SHT31;56029;52.568;13.588;2023-07-29T03:39:31;16.27;99.99
68977;SHT31;56029;52.568;13.588;2023-07-29T03:41:58;16.21;99.99
68977;SHT31;56029;52.568;13.588;2023-07-29T03:44:23;16.24;99.99
68977;SHT31;56029;52.568;13.588;2023-07-29T03:46:49;16.31;99.99
68977;SHT31;56029;52.568;13.588;2023-07-29T03:49:14;16.33;99.99
68977;SHT31;56029;52.568;13.588;2023-07-29T03:51:40;16.36;99.99
68977;SHT31;56029;52.568;13.588;2023-07-29T03:54:06;16.43;99.99
68977;SHT31;56029;52.568;13.588;2023-07-29T03:56:32;16.51;99.99
68977;SHT31;56029;52.568;13.588;2023-07-29T03:59:05;16.60;99.99
68977;SHT31;56029;52.568;13.588;2023-07-29T04:01:31;16.81;99.99
68977;SHT31;56029;52.568;13.588;2023-07-29T04:03:57;17.07;99.92
68977;SHT31;56029;52.568;13.588;2023-07-29T04:06:23;17.19;99.63
68977;SHT31;56029;52.568;13.588;2023-07-29T04:08:48;17.28;98.94
68977;SHT31;56029;52.568;13.588;2023-07-29T04:11:14;17.36;99.06
68977;SHT31;56029;52.568;13.588;2023-07-29T04:13:40;17.36;98.63
68977;SHT31;56029;52.568;13.588;2023-07-29T04:16:06;17.36;99.12
68977;SHT31;56029;52.568;13.588;2023-07-29T04:18:32;17.29;98.77
68977;SHT31;56029;52.568;13.588;2023-07-29T04:20:58;17.26;98.94
68977;SHT31;56029;52.568;13.588;2023-07-29T04:23:23;17.23;98.95
68977;SHT31;56029;52.568;13.588;2023-07-29T04:25:49;17.26;98.98
68977;SHT31;56029;52.568;13.588;2023-07-29T04:28:15;17.28;99.08
68977;SHT31;56029;52.568;13.588;2023-07-29T04:30:41;17.25;99.16
68977;SHT31;56029;52.568;13.588;2023-07-29T04:33:06;17.32;99.13
68977;SHT31;56029;52.568;13.588;2023-07-29T04:35:32;17.37;99.09
68977;SHT31;56029;52.568;13.588;2023-07-29T04:37:58;17.57;98.73
68977;SHT31;56029;52.568;13.588;2023-07-29T04:40:23;18.14;97.96
68977;SHT31;56029;52.568;13.588;2023-07-29T04:42:49;18.76;95.82
68977;SHT31;56029;52.568;13.588;2023-07-29T04:45:15;19.42;94.74
68977;SHT31;56029;52.568;13.588;2023-07-29T04:47:41;19.72;93.41
68977;SHT31;56029;52.568;13.588;2023-07-29T04:50:07;20.23;91.86
68977;SHT31;56029;52.568;13.588;2023-07-29T04:52:33;20.69;90.86
68977;SHT31;56029;52.568;13.588;2023-07-29T04:54:58;20.85;89.34
68977;SHT31;56029;52.568;13.588;2023-07-29T04:57:24;21.36;88.49
68977;SHT31;56029;52.568;13.588;2023-07-29T04:59:49;21.66;87.36
68977;SHT31;56029;52.568;13.588;2023-07-29T05:02:15;21.71;86.57
68977;SHT31;56029;52.568;13.588;2023-07-29T05:04:41;21.45;88.49
68977;SHT31;56029;52.568;13.588;2023-07-29T05:07:06;21.16;89.30
68977;SHT31;56029;52.568;13.588;2023-07-29T05:09:32;21.09;90.06
68977;SHT31;56029;52.568;13.588;2023-07-29T05:11:57;20.88;89.94
68977;SHT31;56029;52.568;13.588;2023-07-29T05:14:23;20.99;90.67
68977;SHT31;56029;52.568;13.588;2023-07-29T05:16:49;21.23;90.04
68977;SHT31;56029;52.568;13.588;2023-07-29T05:19:14;21.35;88.47
68977;SHT31;56029;52.568;13.588;2023-07-29T05:21:40;21.33;89.04
68977;SHT31;56029;52.568;13.588;2023-07-29T05:24:06;21.22;89.68
68977;SHT31;56029;52.568;13.588;2023-07-29T05:26:31;21.13;90.27
68977;SHT31;56029;52.568;13.588;2023-07-29T05:28:57;21.12;90.34
68977;SHT31;56029;52.568;13.588;2023-07-29T05:31:22;20.99;90.36
68977;SHT31;56029;52.568;13.588;2023-07-29T05:33:48;20.95;90.92
68977;SHT31;56029;52.568;13.588;2023-07-29T05:36:14;20.88;90.72
68977;SHT31;56029;52.568;13.588;2023-07-29T05:38:39;20.77;90.86
68977;SHT31;56029;52.568;13.588;2023-07-29T05:41:05;20.74;91.50
68977;SHT31;56029;52.568;13.588;2023-07-29T05:43:30;20.64;91.86
68977;SHT31;56029;52.568;13.588;2023-07-29T05:45:56;20.65;92.23
68977;SHT31;56029;52.568;13.588;2023-07-29T05:48:22;20.67;91.84
68977;SHT31;56029;52.568;13.588;2023-07-29T05:50:47;20.75;91.73
68977;SHT31;56029;52.568;13.588;2023-07-29T05:53:14;20.79;91.55
68977;SHT31;56029;52.568;13.588;2023-07-29T05:55:39;20.85;91.91
68977;SHT31;56029;52.568;13.588;2023-07-29T05:58:05;20.68;91.37
68977;SHT31;56029;52.568;13.588;2023-07-29T06:00:31;20.87;92.14
68977;SHT31;56029;52.568;13.588;2023-07-29T06:02:57;20.94;91.91
68977;SHT31;56029;52.568;13.588;2023-07-29T06:05:22;20.96;92.16
68977;SHT31;56029;52.568;13.588;2023-07-29T06:07:48;20.87;91.41
68977;SHT31;56029;52.568;13.588;2023-07-29T06:10:15;20.85;92.06
68977;SHT31;56029;52.568;13.588;2023-07-29T06:12:45;20.85;91.79
68977;SHT31;56029;52.568;13.588;2023-07-29T06:15:11;20.95;92.07
68977;SHT31;56029;52.568;13.588;2023-07-29T06:17:38;20.79;91.60
68977;SHT31;56029;52.568;13.588;2023-07-29T06:20:04;20.75;91.67
68977;SHT31;56029;52.568;13.588;2023-07-29T06:22:30;20.81;91.61
68977;SHT31;56029;52.568;13.588;2023-07-29T06:24:55;20.84;91.75
68977;SHT31;56029;52.568;13.588;2023-07-29T06:27:21;20.89;91.88
68977;SHT31;56029;52.568;13.588;2023-07-29T06:29:46;20.96;91.86
68977;SHT31;56029;52.568;13.588;2023-07-29T06:32:12;20.99;91.97
68977;SHT31;56029;52.568;13.588;2023-07-29T06:34:37;21.02;91.88
68977;SHT31;56029;52.568;13.588;2023-07-29T06:37:03;21.06;91.64
68977;SHT31;56029;52.568;13.588;2023-07-29T06:39:28;21.05;91.38
68977;SHT31;56029;52.568;13.588;2023-07-29T06:41:54;21.18;91.14
68977;SHT31;56029;52.568;13.588;2023-07-29T06:44:20;21.30;91.26
68977;SHT31;56029;52.568;13.588;2023-07-29T06:46:46;21.39;91.45
68977;SHT31;56029;52.568;13.588;2023-07-29T06:49:11;21.49;90.69
68977;SHT31;56029;52.568;13.588;2023-07-29T06:51:37;21.46;90.30
68977;SHT31;56029;52.568;13.588;2023-07-29T06:54:02;21.49;90.29
68977;SHT31;56029;52.568;13.588;2023-07-29T06:56:28;21.67;90.20
68977;SHT31;56029;52.568;13.588;2023-07-29T06:58:54;21.78;90.60
68977;SHT31;56029;52.568;13.588;2023-07-29T07:01:19;21.88;89.98
68977;SHT31;56029;52.568;13.588;2023-07-29T07:03:45;21.95;89.39
68977;SHT31;56029;52.568;13.588;2023-07-29T07:06:10;22.05;88.90
68977;SHT31;56029;52.568;13.588;2023-07-29T07:08:36;22.18;89.04
68977;SHT31;56029;52.568;13.588;2023-07-29T07:11:01;22.31;88.67
68977;SHT31;56029;52.568;13.588;2023-07-29T07:13:27;22.51;88.69
68977;SHT31;56029;52.568;13.588;2023-07-29T07:15:56;22.52;87.73
68977;SHT31;56029;52.568;13.588;2023-07-29T07:18:22;22.56;87.61
68977;SHT31;56029;52.568;13.588;2023-07-29T07:20:49;22.52;86.88
68977;SHT31;56029;52.568;13.588;2023-07-29T07:23:15;22.63;87.87
68977;SHT31;56029;52.568;13.588;2023-07-29T07:25:41;22.86;88.05
68977;SHT31;56029;52.568;13.588;2023-07-29T07:28:08;23.04;87.60
68977;SHT31;56029;52.568;13.588;2023-07-29T07:30:34;23.01;85.97
68977;SHT31;56029;52.568;13.588;2023-07-29T07:33:00;23.15;85.58
68977;SHT31;56029;52.568;13.588;2023-07-29T07:35:26;23.15;85.44
68977;SHT31;56029;52.568;13.588;2023-07-29T07:37:52;22.99;85.29
68977;SHT31;56029;52.568;13.588;2023-07-29T07:40:18;23.08;85.18
68977;SHT31;56029;52.568;13.588;2023-07-29T07:42:43;23.14;85.96
68977;SHT31;56029;52.568;13.588;2023-07-29T07:45:09;23.24;86.44
68977;SHT31;56029;52.568;13.588;2023-07-29T07:47:34;23.24;85.37
68977;SHT31;56029;52.568;13.588;2023-07-29T07:50:00;22.91;85.31
68977;SHT31;56029;52.568;13.588;2023-07-29T07:52:26;22.84;86.04
68977;SHT31;56029;52.568;13.588;2023-07-29T07:54:52;22.84;86.06
68977;SHT31;56029;52.568;13.588;2023-07-29T07:57:20;22.64;86.05
68977;SHT31;56029;52.568;13.588;2023-07-29T07:59:45;22.60;85.84
68977;SHT31;56029;52.568;13.588;2023-07-29T08:02:11;22.74;86.67
68977;SHT31;56029;52.568;13.588;2023-07-29T08:04:36;22.82;86.20
68977;SHT31;56029;52.568;13.588;2023-07-29T08:07:02;23.07;85.88
68977;SHT31;56029;52.568;13.588;2023-07-29T08:09:28;22.91;84.37
68977;SHT31;56029;52.568;13.588;2023-07-29T08:11:53;23.01;85.52
68977;SHT31;56029;52.568;13.588;2023-07-29T08:14:19;23.08;84.84
68977;SHT31;56029;52.568;13.588;2023-07-29T08:16:44;23.24;85.82
68977;SHT31;56029;52.568;13.588;2023-07-29T08:19:10;23.35;84.59
68977;SHT31;56029;52.568;13.588;2023-07-29T08:21:35;23.49;84.77
68977;SHT31;56029;52.568;13.588;2023-07-29T08:24:01;23.61;84.01
68977;SHT31;56029;52.568;13.588;2023-07-29T08:26:27;23.69;83.34
68977;SHT31;56029;52.568;13.588;2023-07-29T08:28:53;23.82;83.55
68977;SHT31;56029;52.568;13.588;2023-07-29T08:31:18;23.99;83.47
68977;SHT31;56029;52.568;13.588;2023-07-29T08:33:44;24.12;83.59
68977;SHT31;56029;52.568;13.588;2023-07-29T08:36:09;24.31;81.98
68977;SHT31;56029;52.568;13.588;2023-07-29T08:38:35;24.40;80.92
68977;SHT31;56029;52.568;13.588;2023-07-29T08:41:13;24.46;81.08
68977;SHT31;56029;52.568;13.588;2023-07-29T08:43:44;24.55;79.91
68977;SHT31;56029;52.568;13.588;2023-07-29T08:46:13;24.47;80.28
68977;SHT31;56029;52.568;13.588;2023-07-29T08:48:42;24.41;80.58
68977;SHT31;56029;52.568;13.588;2023-07-29T08:51:09;24.26;80.61
68977;SHT31;56029;52.568;13.588;2023-07-29T08:53:36;24.26;80.82
68977;SHT31;56029;52.568;13.588;2023-07-29T08:56:02;24.12;81.15
68977;SHT31;56029;52.568;13.588;2023-07-29T08:58:28;24.14;81.41
68977;SHT31;56029;52.568;13.588;2023-07-29T09:00:53;24.31;81.11
68977;SHT31;56029;52.568;13.588;2023-07-29T09:03:20;24.41;80.86
68977;SHT31;56029;52.568;13.588;2023-07-29T09:05:47;24.50;82.47
68977;SHT31;56029;52.568;13.588;2023-07-29T09:08:13;24.48;80.84
68977;SHT31;56029;52.568;13.588;2023-07-29T09:10:40;24.54;79.44
68977;SHT31;56029;52.568;13.588;2023-07-29T09:13:06;24.71;80.71
68977;SHT31;56029;52.568;13.588;2023-07-29T09:15:34;24.91;79.63
68977;SHT31;56029;52.568;13.588;2023-07-29T09:18:11;25.09;80.42
68977;SHT31;56029;52.568;13.588;2023-07-29T09:20:36;25.20;79.55
68977;SHT31;56029;52.568;13.588;2023-07-29T09:23:02;25.08;79.30
68977;SHT31;56029;52.568;13.588;2023-07-29T09:25:29;25.15;77.84
68977;SHT31;56029;52.568;13.588;2023-07-29T09:27:59;25.05;78.36
68977;SHT31;56029;52.568;13.588;2023-07-29T09:30:25;24.98;77.87
68977;SHT31;56029;52.568;13.588;2023-07-29T09:32:55;24.77;78.88
68977;SHT31;56029;52.568;13.588;2023-07-29T09:35:21;24.98;79.10
68977;SHT31;56029;52.568;13.588;2023-07-29T09:37:47;25.27;78.25
68977;SHT31;56029;52.568;13.588;2023-07-29T09:40:17;25.50;78.69
68977;SHT31;56029;52.568;13.588;2023-07-29T09:42:54;25.84;78.18
68977;SHT31;56029;52.568;13.588;2023-07-29T09:45:27;26.02;76.77
68977;SHT31;56029;52.568;13.588;2023-07-29T09:47:54;25.95;75.30
68977;SHT31;56029;52.568;13.588;2023-07-29T09:50:23;25.91;77.07
68977;SHT31;56029;52.568;13.588;2023-07-29T09:52:51;25.98;77.52
68977;SHT31;56029;52.568;13.588;2023-07-29T09:55:18;25.95;75.89
68977;SHT31;56029;52.568;13.588;2023-07-29T09:57:45;26.08;76.31
68977;SHT31;56029;52.568;13.588;2023-07-29T10:00:11;26.15;75.83
68977;SHT31;56029;52.568;13.588;2023-07-29T10:02:42;25.88;75.81
68977;SHT31;56029;52.568;13.588;2023-07-29T10:05:09;26.06;78.55
68977;SHT31;56029;52.568;13.588;2023-07-29T10:07:39;25.97;76.19
68977;SHT31;56029;52.568;13.588;2023-07-29T10:10:06;25.95;75.90
68977;SHT31;56029;52.568;13.588;2023-07-29T10:12:33;26.14;76.65
68977;SHT31;56029;52.568;13.588;2023-07-29T10:15:02;26.22;77.54
68977;SHT31;56029;52.568;13.588;2023-07-29T10:17:29;26.42;75.98
68977;SHT31;56029;52.568;13.588;2023-07-29T10:19:56;26.41;76.25
68977;SHT31;56029;52.568;13.588;2023-07-29T10:22:25;26.52;75.58
68977;SHT31;56029;52.568;13.588;2023-07-29T10:24:54;26.52;76.35
68977;SHT31;56029;52.568;13.588;2023-07-29T10:27:23;26.56;75.01
68977;SHT31;56029;52.568;13.588;2023-07-29T10:29:50;26.82;75.44
68977;SHT31;56029;52.568;13.588;2023-07-29T10:32:16;27.03;75.38
68977;SHT31;56029;52.568;13.588;2023-07-29T10:34:41;26.82;75.12
68977;SHT31;56029;52.568;13.588;2023-07-29T10:37:07;26.72;74.05
68977;SHT31;56029;52.568;13.588;2023-07-29T10:39:40;26.64;74.28
68977;SHT31;56029;52.568;13.588;2023-07-29T10:42:07;26.75;74.59
68977;SHT31;56029;52.568;13.588;2023-07-29T10:49:58;26.76;74.57
68977;SHT31;56029;52.568;13.588;2023-07-29T10:54:59;26.79;75.40
68977;SHT31;56029;52.568;13.588;2023-07-29T10:57:33;26.84;73.46
68977;SHT31;56029;52.568;13.588;2023-07-29T10:59:59;26.84;73.74
68977;SHT31;56029;52.568;13.588;2023-07-29T11:02:33;26.91;73.68
68977;SHT31;56029;52.568;13.588;2023-07-29T11:05:07;26.90;73.56
68977;SHT31;56029;52.568;13.588;2023-07-29T11:07:47;26.82;74.00
68977;SHT31;56029;52.568;13.588;2023-07-29T11:10:13;26.60;74.86
68977;SHT31;56029;52.568;13.588;2023-07-29T11:12:46;26.48;75.53
68977;SHT31;56029;52.568;13.588;2023-07-29T11:15:22;26.39;75.66
68977;SHT31;56029;52.568;13.588;2023-07-29T11:17:56;26.15;75.59
68977;SHT31;56029;52.568;13.588;2023-07-29T11:20:24;25.98;76.39
68977;SHT31;56029;52.568;13.588;2023-07-29T11:22:52;25.77;74.64
68977;SHT31;56029;52.568;13.588;2023-07-29T11:25:18;25.50;75.01
68977;SHT31;56029;52.568;13.588;2023-07-29T11:27:45;25.16;75.55
68977;SHT31;56029;52.568;13.588;2023-07-29T11:30:15;24.99;76.20
68977;SHT31;56029;52.568;13.588;2023-07-29T11:32:42;24.72;76.59
68977;SHT31;56029;52.568;13.588;2023-07-29T11:35:13;23.82;82.09
68977;SHT31;56029;52.568;13.588;2023-07-29T11:37:41;22.31;86.66
68977;SHT31;56029;52.568;13.588;2023-07-29T11:40:07;21.66;91.09
68977;SHT31;56029;52.568;13.588;2023-07-29T11:42:36;21.32;94.05
68977;SHT31;56029;52.568;13.588;2023-07-29T11:45:03;21.08;93.65
68977;SHT31;56029;52.568;13.588;2023-07-29T11:47:29;20.94;94.73
68977;SHT31;56029;52.568;13.588;2023-07-29T11:49:58;20.88;94.47
68977;SHT31;56029;52.568;13.588;2023-07-29T11:52:24;20.75;94.19
68977;SHT31;56029;52.568;13.588;2023-07-29T11:54:49;20.67;94.47
68977;SHT31;56029;52.568;13.588;2023-07-29T11:57:16;20.61;94.33
68977;SHT31;56029;52.568;13.588;2023-07-29T11:59:42;20.48;94.50
68977;SHT31;56029;52.568;13.588;2023-07-29T12:02:10;20.51;94.84
68977;SHT31;56029;52.568;13.588;2023-07-29T12:04:37;20.63;94.53
68977;SHT31;56029;52.568;13.588;2023-07-29T12:07:04;20.77;93.00
68977;SHT31;56029;52.568;13.588;2023-07-29T12:09:30;20.72;93.82
68977;SHT31;56029;52.568;13.588;2023-07-29T12:11:56;20.61;92.72
68977;SHT31;56029;52.568;13.588;2023-07-29T12:14:21;20.74;93.29
68977;SHT31;56029;52.568;13.588;2023-07-29T12:16:48;20.91;92.80
68977;SHT31;56029;52.568;13.588;2023-07-29T12:19:14;20.99;93.14
68977;SHT31;56029;52.568;13.588;2023-07-29T12:21:44;20.88;91.76
68977;SHT31;56029;52.568;13.588;2023-07-29T12:24:11;20.94;93.11
68977;SHT31;56029;52.568;13.588;2023-07-29T12:26:37;20.98;92.50
68977;SHT31;56029;52.568;13.588;2023-07-29T12:31:38;21.12;92.23
68977;SHT31;56029;52.568;13.588;2023-07-29T12:34:04;21.16;92.64
68977;SHT31;56029;52.568;13.588;2023-07-29T12:36:47;21.25;92.07
68977;SHT31;56029;52.568;13.588;2023-07-29T12:39:27;21.26;92.08
68977;SHT31;56029;52.568;13.588;2023-07-29T12:41:54;21.26;92.64
68977;SHT31;56029;52.568;13.588;2023-07-29T12:44:20;21.49;92.79
68977;SHT31;56029;52.568;13.588;2023-07-29T12:46:46;21.66;91.70
68977;SHT31;56029;52.568;13.588;2023-07-29T12:49:12;21.66;91.52
68977;SHT31;56029;52.568;13.588;2023-07-29T12:51:37;21.94;92.54
68977;SHT31;56029;52.568;13.588;2023-07-29T12:54:03;22.05;90.54
68977;SHT31;56029;52.568;13.588;2023-07-29T12:56:30;22.33;90.63
68977;SHT31;56029;52.568;13.588;2023-07-29T12:58:57;22.55;89.60
68977;SHT31;56029;52.568;13.588;2023-07-29T13:01:24;22.91;89.94
68977;SHT31;56029;52.568;13.588;2023-07-29T13:03:50;23.27;88.65
68977;SHT31;56029;52.568;13.588;2023-07-29T13:06:15;23.37;87.34
68977;SHT31;56029;52.568;13.588;2023-07-29T13:08:41;23.75;88.01
68977;SHT31;56029;52.568;13.588;2023-07-29T13:11:07;24.02;85.67
68977;SHT31;56029;52.568;13.588;2023-07-29T13:13:33;24.26;85.11
68977;SHT31;56029;52.568;13.588;2023-07-29T13:15:58;24.14;84.43
68977;SHT31;56029;52.568;13.588;2023-07-29T13:18:24;24.05;84.54
68977;SHT31;56029;52.568;13.588;2023-07-29T13:20:50;24.54;85.94
68977;SHT31;56029;52.568;13.588;2023-07-29T13:23:15;24.72;85.30
68977;SHT31;56029;52.568;13.588;2023-07-29T13:25:41;24.74;83.67
68977;SHT31;56029;52.568;13.588;2023-07-29T13:28:08;24.20;83.59
68977;SHT31;56029;52.568;13.588;2023-07-29T13:30:34;23.96;84.78
68977;SHT31;56029;52.568;13.588;2023-07-29T13:32:59;23.62;85.44
68977;SHT31;56029;52.568;13.588;2023-07-29T13:35:25;23.18;85.94
68977;SHT31;56029;52.568;13.588;2023-07-29T13:37:50;23.17;86.99
68977;SHT31;56029;52.568;13.588;2023-07-29T13:40:16;23.25;86.02
68977;SHT31;56029;52.568;13.588;2023-07-29T13:42:41;23.42;86.65
68977;SHT31;56029;52.568;13.588;2023-07-29T13:45:08;23.59;86.75
68977;SHT31;56029;52.568;13.588;2023-07-29T13:47:33;23.98;85.87
68977;SHT31;56029;52.568;13.588;2023-07-29T13:49:59;24.09;83.92
68977;SHT31;56029;52.568;13.588;2023-07-29T13:52:25;24.07;83.74
68977;SHT31;56029;52.568;13.588;2023-07-29T13:54:51;24.23;84.19
68977;SHT31;56029;52.568;13.588;2023-07-29T13:57:16;24.17;82.94
68977;SHT31;56029;52.568;13.588;2023-07-29T13:59:42;24.40;83.45
68977;SHT31;56029;52.568;13.588;2023-07-29T14:02:07;24.30;80.79
68977;SHT31;56029;52.568;13.588;2023-07-29T14:04:33;24.19;82.44
68977;SHT31;56029;52.568;13.588;2023-07-29T14:06:59;24.36;81.28
68977;SHT31;56029;52.568;13.588;2023-07-29T14:09:26;24.54;80.66
68977;SHT31;56029;52.568;13.588;2023-07-29T14:11:51;24.96;82.31
68977;SHT31;56029;52.568;13.588;2023-07-29T14:14:17;25.29;79.30
68977;SHT31;56029;52.568;13.588;2023-07-29T14:16:43;25.69;79.58
68977;SHT31;56029;52.568;13.588;2023-07-29T14:19:09;25.66;77.62
68977;SHT31;56029;52.568;13.588;2023-07-29T14:21:34;25.40;77.25
68977;SHT31;56029;52.568;13.588;2023-07-29T14:24:00;25.25;77.15
68977;SHT31;56029;52.568;13.588;2023-07-29T14:26:25;24.82;76.80
68977;SHT31;56029;52.568;13.588;2023-07-29T14:28:51;24.67;77.59
68977;SHT31;56029;52.568;13.588;2023-07-29T14:31:17;24.53;77.22
68977;SHT31;56029;52.568;13.588;2023-07-29T14:33:44;24.71;79.11
68977;SHT31;56029;52.568;13.588;2023-07-29T14:36:09;24.71;79.01
68977;SHT31;56029;52.568;13.588;2023-07-29T14:38:36;24.48;78.55
68977;SHT31;56029;52.568;13.588;2023-07-29T14:41:02;24.38;79.57
68977;SHT31;56029;52.568;13.588;2023-07-29T14:43:28;24.36;79.23
68977;SHT31;56029;52.568;13.588;2023-07-29T14:45:53;24.19;79.37
68977;SHT31;56029;52.568;13.588;2023-07-29T14:48:19;24.00;79.18
68977;SHT31;56029;52.568;13.588;2023-07-29T14:50:44;23.86;79.67
68977;SHT31;56029;52.568;13.588;2023-07-29T14:53:10;24.05;79.58
68977;SHT31;56029;52.568;13.588;2023-07-29T14:55:39;24.05;79.23
68977;SHT31;56029;52.568;13.588;2023-07-29T14:58:05;24.24;79.43
68977;SHT31;56029;52.568;13.588;2023-07-29T15:00:30;24.33;79.55
68977;SHT31;56029;52.568;13.588;2023-07-29T15:02:56;24.33;78.34
68977;SHT31;56029;52.568;13.588;2023-07-29T15:05:21;24.26;78.71
68977;SHT31;56029;52.568;13.588;2023-07-29T15:07:47;24.17;79.11
68977;SHT31;56029;52.568;13.588;2023-07-29T15:10:16;24.03;79.56
68977;SHT31;56029;52.568;13.588;2023-07-29T15:12:43;24.02;79.97
68977;SHT31;56029;52.568;13.588;2023-07-29T15:15:10;23.92;79.76
68977;SHT31;56029;52.568;13.588;2023-07-29T15:17:37;23.69;80.76
68977;SHT31;56029;52.568;13.588;2023-07-29T15:20:03;23.78;81.05
68977;SHT31;56029;52.568;13.588;2023-07-29T15:22:29;23.78;80.17
68977;SHT31;56029;52.568;13.588;2023-07-29T15:24:55;23.80;81.51